sensor_id;sensor_type;location;lat;lon;timestamp;P1;durP1;ratioP1;P2;durP2;ratioP2
7074;SDS011;3578;51.568;6.932;2022-09-13T00:02:17;6.13;;;5.53;;
7074;SDS011;3578;51.568;6.932;2022-09-13T00:04:44;6.50;;;5.90;;
7074;SDS011;3578;51.568;6.932;2022-09-13T00:07:11;5.77;;;5.27;;
7074;SDS011;3578;51.568;6.932;2022-09-13T00:09:38;5.80;;;5.30;;
7074;SDS011;3578;51.568;6.932;2022-09-13T00:12:06;6.40;;;5.67;;
7074;SDS011;3578;51.568;6.932;2022-09-13T00:14:33;6.30;;;5.80;;
7074;SDS011;3578;51.568;6.932;2022-09-13T00:17:00;6.67;;;5.30;;
7074;SDS011;3578;51.568;6.932;2022-09-13T00:19:27;6.30;;;5.70;;
7074;SDS011;3578;51.568;6.932;2022-09-13T00:21:54;6.40;;;5.90;;
7074;SDS011;3578;51.568;6.932;2022-09-13T00:24:21;6.60;;;5.30;;
7074;SDS011;3578;51.568;6.932;2022-09-13T00:26:48;6.17;;;5.57;;
7074;SDS011;3578;51.568;6.932;2022-09-13T00:29:16;5.60;;;5.20;;
7074;SDS011;3578;51.568;6.932;2022-09-13T00:31:44;5.70;;;5.23;;
7074;SDS011;3578;51.568;6.932;2022-09-13T00:34:11;6.10;;;5.50;;
7074;SDS011;3578;51.568;6.932;2022-09-13T00:36:38;6.37;;;5.27;;
7074;SDS011;3578;51.568;6.932;2022-09-13T00:39:05;6.03;;;4.90;;
7074;SDS011;3578;51.568;6.932;2022-09-13T00:41:32;5.97;;;5.57;;
7074;SDS011;3578;51.568;6.932;2022-09-13T00:43:59;6.43;;;5.13;;
7074;SDS011;3578;51.568;6.932;2022-09-13T00:46:31;6.33;;;5.47;;
7074;SDS011;3578;51.568;6.932;2022-09-13T00:49:04;7.53;;;5.77;;
7074;SDS011;3578;51.568;6.932;2022-09-13T00:51:39;5.90;;;5.40;;
7074;SDS011;3578;51.568;6.932;2022-09-13T00:54:10;5.80;;;5.30;;
7074;SDS011;3578;51.568;6.932;2022-09-13T00:56:39;5.50;;;5.13;;
7074;SDS011;3578;51.568;6.932;2022-09-13T00:59:12;7.03;;;5.33;;
7074;SDS011;3578;51.568;6.932;2022-09-13T01:01:45;5.17;;;4.70;;
7074;SDS011;3578;51.568;6.932;2022-09-13T01:04:18;6.17;;;4.73;;
7074;SDS011;3578;51.568;6.932;2022-09-13T01:06:47;7.60;;;4.90;;
7074;SDS011;3578;51.568;6.932;2022-09-13T01:09:17;5.23;;;4.80;;
7074;SDS011;3578;51.568;6.932;2022-09-13T01:11:45;5.60;;;5.10;;
7074;SDS011;3578;51.568;6.932;2022-09-13T01:14:15;5.23;;;4.73;;
7074;SDS011;3578;51.568;6.932;2022-09-13T01:16:45;5.40;;;4.90;;
7074;SDS011;3578;51.568;6.932;2022-09-13T01:19:13;5.13;;;4.73;;
7074;SDS011;3578;51.568;6.932;2022-09-13T01:22:01;8.53;;;4.80;;
7074;SDS011;3578;51.568;6.932;2022-09-13T01:28:09;6.03;;;4.47;;
7074;SDS011;3578;51.568;6.932;2022-09-13T01:31:00;5.57;;;5.13;;
7074;SDS011;3578;51.568;6.932;2022-09-13T01:33:38;5.20;;;4.80;;
7074;SDS011;3578;51.568;6.932;2022-09-13T01:39:21;5.70;;;5.20;;
7074;SDS011;3578;51.568;6.932;2022-09-13T01:42:09;5.60;;;5.10;;
7074;SDS011;3578;51.568;6.932;2022-09-13T01:44:52;5.70;;;5.27;;
7074;SDS011;3578;51.568;6.932;2022-09-13T01:47:33;5.50;;;4.73;;
7074;SDS011;3578;51.568;6.932;2022-09-13T01:50:11;6.07;;;5.47;;
7074;SDS011;3578;51.568;6.932;2022-09-13T01:52:48;7.33;;;5.13;;
7074;SDS011;3578;51.568;6.932;2022-09-13T01:55:25;4.77;;;4.47;;
7074;SDS011;3578;51.568;6.932;2022-09-13T01:58:02;5.50;;;5.10;;
7074;SDS011;3578;51.568;6.932;2022-09-13T02:00:38;6.07;;;5.47;;
7074;SDS011;3578;51.568;6.932;2022-09-13T02:03:15;7.63;;;5.40;;
7074;SDS011;3578;51.568;6.932;2022-09-13T02:05:45;7.20;;;4.80;;
7074;SDS011;3578;51.568;6.932;2022-09-13T02:08:18;10.83;;;4.97;;
7074;SDS011;3578;51.568;6.932;2022-09-13T02:10:52;5.40;;;5.00;;
7074;SDS011;3578;51.568;6.932;2022-09-13T02:13:26;5.90;;;5.40;;
7074;SDS011;3578;51.568;6.932;2022-09-13T02:16:01;7.03;;;4.80;;
7074;SDS011;3578;51.568;6.932;2022-09-13T02:18:37;5.20;;;4.20;;
7074;SDS011;3578;51.568;6.932;2022-09-13T02:21:07;11.17;;;5.17;;
7074;SDS011;3578;51.568;6.932;2022-09-13T02:23:40;7.07;;;4.90;;
7074;SDS011;3578;51.568;6.932;2022-09-13T02:26:13;5.10;;;4.70;;
7074;SDS011;3578;51.568;6.932;2022-09-13T02:28:43;4.50;;;4.10;;
7074;SDS011;3578;51.568;6.932;2022-09-13T02:31:17;7.03;;;4.87;;
7074;SDS011;3578;51.568;6.932;2022-09-13T02:33:53;4.97;;;4.50;;
7074;SDS011;3578;51.568;6.932;2022-09-13T02:36:25;9.27;;;4.73;;
7074;SDS011;3578;51.568;6.932;2022-09-13T02:38:58;6.73;;;4.83;;
7074;SDS011;3578;51.568;6.932;2022-09-13T02:41:29;7.07;;;5.10;;
7074;SDS011;3578;51.568;6.932;2022-09-13T02:44:03;4.90;;;4.40;;
7074;SDS011;3578;51.568;6.932;2022-09-13T02:46:42;5.00;;;4.60;;
7074;SDS011;3578;51.568;6.932;2022-09-13T02:49:27;5.47;;;4.97;;
7074;SDS011;3578;51.568;6.932;2022-09-13T02:52:01;4.93;;;4.00;;
7074;SDS011;3578;51.568;6.932;2022-09-13T02:54:37;5.47;;;4.10;;
7074;SDS011;3578;51.568;6.932;2022-09-13T02:57:13;6.53;;;4.27;;
7074;SDS011;3578;51.568;6.932;2022-09-13T02:59:45;5.83;;;4.03;;
7074;SDS011;3578;51.568;6.932;2022-09-13T03:02:14;4.97;;;4.47;;
7074;SDS011;3578;51.568;6.932;2022-09-13T03:04:46;11.20;;;4.70;;
7074;SDS011;3578;51.568;6.932;2022-09-13T03:07:15;4.90;;;3.90;;
7074;SDS011;3578;51.568;6.932;2022-09-13T03:09:45;4.53;;;4.20;;
7074;SDS011;3578;51.568;6.932;2022-09-13T03:12:22;4.83;;;4.10;;
7074;SDS011;3578;51.568;6.932;2022-09-13T03:15:27;4.93;;;4.43;;
7074;SDS011;3578;51.568;6.932;2022-09-13T03:18:12;4.40;;;4.10;;
7074;SDS011;3578;51.568;6.932;2022-09-13T03:20:58;4.87;;;4.47;;
7074;SDS011;3578;51.568;6.932;2022-09-13T03:26:28;5.37;;;4.27;;
7074;SDS011;3578;51.568;6.932;2022-09-13T03:29:12;5.93;;;4.63;;
7074;SDS011;3578;51.568;6.932;2022-09-13T03:31:57;5.43;;;4.43;;
7074;SDS011;3578;51.568;6.932;2022-09-13T03:34:39;4.47;;;4.07;;
7074;SDS011;3578;51.568;6.932;2022-09-13T03:37:17;5.13;;;4.63;;
7074;SDS011;3578;51.568;6.932;2022-09-13T03:39:54;7.43;;;4.97;;
7074;SDS011;3578;51.568;6.932;2022-09-13T03:42:27;7.93;;;3.87;;
7074;SDS011;3578;51.568;6.932;2022-09-13T03:45:01;5.77;;;4.10;;
7074;SDS011;3578;51.568;6.932;2022-09-13T03:47:32;4.67;;;4.37;;
7074;SDS011;3578;51.568;6.932;2022-09-13T03:50:02;4.50;;;4.20;;
7074;SDS011;3578;51.568;6.932;2022-09-13T03:52:34;5.10;;;4.60;;
7074;SDS011;3578;51.568;6.932;2022-09-13T03:55:02;5.00;;;4.50;;
7074;SDS011;3578;51.568;6.932;2022-09-13T03:57:30;5.13;;;4.30;;
7074;SDS011;3578;51.568;6.932;2022-09-13T03:59:57;8.93;;;4.70;;
7074;SDS011;3578;51.568;6.932;2022-09-13T04:02:24;6.33;;;4.50;;
7074;SDS011;3578;51.568;6.932;2022-09-13T04:04:52;6.27;;;4.43;;
7074;SDS011;3578;51.568;6.932;2022-09-13T04:07:20;4.60;;;4.20;;
7074;SDS011;3578;51.568;6.932;2022-09-13T04:09:51;7.57;;;3.87;;
7074;SDS011;3578;51.568;6.932;2022-09-13T04:12:17;4.63;;;4.20;;
7074;SDS011;3578;51.568;6.932;2022-09-13T04:14:44;5.00;;;4.40;;
7074;SDS011;3578;51.568;6.932;2022-09-13T04:17:11;8.10;;;4.63;;
7074;SDS011;3578;51.568;6.932;2022-09-13T04:19:39;4.83;;;4.33;;
7074;SDS011;3578;51.568;6.932;2022-09-13T04:22:08;7.70;;;4.53;;
7074;SDS011;3578;51.568;6.932;2022-09-13T04:24:35;4.97;;;4.47;;
7074;SDS011;3578;51.568;6.932;2022-09-13T04:27:04;5.57;;;4.93;;
7074;SDS011;3578;51.568;6.932;2022-09-13T04:29:31;4.90;;;4.50;;
7074;SDS011;3578;51.568;6.932;2022-09-13T04:31:58;5.40;;;4.90;;
7074;SDS011;3578;51.568;6.932;2022-09-13T04:34:26;5.80;;;5.20;;
7074;SDS011;3578;51.568;6.932;2022-09-13T04:36:53;5.40;;;4.90;;
7074;SDS011;3578;51.568;6.932;2022-09-13T04:39:20;5.57;;;5.07;;
7074;SDS011;3578;51.568;6.932;2022-09-13T04:41:48;5.07;;;4.63;;
7074;SDS011;3578;51.568;6.932;2022-09-13T04:44:17;6.93;;;5.07;;
7074;SDS011;3578;51.568;6.932;2022-09-13T04:46:45;5.00;;;4.50;;
7074;SDS011;3578;51.568;6.932;2022-09-13T04:49:13;11.10;;;5.17;;
7074;SDS011;3578;51.568;6.932;2022-09-13T04:51:41;5.63;;;4.30;;
7074;SDS011;3578;51.568;6.932;2022-09-13T04:54:09;5.67;;;5.13;;
7074;SDS011;3578;51.568;6.932;2022-09-13T04:56:37;8.40;;;4.67;;
7074;SDS011;3578;51.568;6.932;2022-09-13T04:59:04;6.50;;;5.80;;
7074;SDS011;3578;51.568;6.932;2022-09-13T05:01:33;5.47;;;4.50;;
7074;SDS011;3578;51.568;6.932;2022-09-13T05:04:00;5.10;;;4.33;;
7074;SDS011;3578;51.568;6.932;2022-09-13T05:06:28;6.03;;;3.97;;
7074;SDS011;3578;51.568;6.932;2022-09-13T05:08:55;9.03;;;5.10;;
7074;SDS011;3578;51.568;6.932;2022-09-13T05:11:23;5.03;;;4.57;;
7074;SDS011;3578;51.568;6.932;2022-09-13T05:13:53;5.77;;;4.43;;
7074;SDS011;3578;51.568;6.932;2022-09-13T05:16:22;8.70;;;5.37;;
7074;SDS011;3578;51.568;6.932;2022-09-13T05:18:52;4.97;;;4.40;;
7074;SDS011;3578;51.568;6.932;2022-09-13T05:21:21;5.50;;;5.00;;
7074;SDS011;3578;51.568;6.932;2022-09-13T05:23:49;8.07;;;4.90;;
7074;SDS011;3578;51.568;6.932;2022-09-13T05:26:18;5.63;;;5.10;;
7074;SDS011;3578;51.568;6.932;2022-09-13T05:28:46;5.90;;;5.30;;
7074;SDS011;3578;51.568;6.932;2022-09-13T05:31:14;7.97;;;5.10;;
7074;SDS011;3578;51.568;6.932;2022-09-13T05:33:44;5.63;;;5.10;;
7074;SDS011;3578;51.568;6.932;2022-09-13T05:36:14;8.27;;;5.10;;
7074;SDS011;3578;51.568;6.932;2022-09-13T05:38:41;6.13;;;5.53;;
7074;SDS011;3578;51.568;6.932;2022-09-13T05:41:08;8.40;;;4.70;;
7074;SDS011;3578;51.568;6.932;2022-09-13T05:43:35;5.37;;;4.93;;
7074;SDS011;3578;51.568;6.932;2022-09-13T05:46:03;4.80;;;4.40;;
7074;SDS011;3578;51.568;6.932;2022-09-13T05:48:33;8.73;;;5.20;;
7074;SDS011;3578;51.568;6.932;2022-09-13T05:51:04;7.93;;;5.40;;
7074;SDS011;3578;51.568;6.932;2022-09-13T05:53:34;5.70;;;5.07;;
7074;SDS011;3578;51.568;6.932;2022-09-13T05:56:02;7.87;;;5.80;;
7074;SDS011;3578;51.568;6.932;2022-09-13T05:58:29;7.93;;;5.47;;
7074;SDS011;3578;51.568;6.932;2022-09-13T06:00:56;11.23;;;6.80;;
7074;SDS011;3578;51.568;6.932;2022-09-13T06:03:23;7.60;;;5.00;;
7074;SDS011;3578;51.568;6.932;2022-09-13T06:05:53;7.77;;;5.50;;
7074;SDS011;3578;51.568;6.932;2022-09-13T06:08:21;8.07;;;5.97;;
7074;SDS011;3578;51.568;6.932;2022-09-13T06:10:57;11.30;;;5.67;;
7074;SDS011;3578;51.568;6.932;2022-09-13T06:13:26;9.60;;;5.40;;
7074;SDS011;3578;51.568;6.932;2022-09-13T06:15:54;6.30;;;5.37;;
7074;SDS011;3578;51.568;6.932;2022-09-13T06:18:23;9.40;;;6.03;;
7074;SDS011;3578;51.568;6.932;2022-09-13T06:20:56;8.47;;;5.60;;
7074;SDS011;3578;51.568;6.932;2022-09-13T06:23:24;7.13;;;5.20;;
7074;SDS011;3578;51.568;6.932;2022-09-13T06:25:59;8.20;;;6.10;;
7074;SDS011;3578;51.568;6.932;2022-09-13T06:28:28;7.57;;;5.80;;
7074;SDS011;3578;51.568;6.932;2022-09-13T06:30:59;6.80;;;5.40;;
7074;SDS011;3578;51.568;6.932;2022-09-13T06:33:27;6.40;;;5.30;;
7074;SDS011;3578;51.568;6.932;2022-09-13T06:35:58;6.70;;;5.27;;
7074;SDS011;3578;51.568;6.932;2022-09-13T06:38:27;7.93;;;6.23;;
7074;SDS011;3578;51.568;6.932;2022-09-13T06:40:59;8.00;;;5.83;;
7074;SDS011;3578;51.568;6.932;2022-09-13T06:43:28;10.40;;;5.77;;
7074;SDS011;3578;51.568;6.932;2022-09-13T06:45:58;9.50;;;5.40;;
7074;SDS011;3578;51.568;6.932;2022-09-13T06:48:26;11.13;;;6.17;;
7074;SDS011;3578;51.568;6.932;2022-09-13T06:50:56;8.03;;;5.80;;
7074;SDS011;3578;51.568;6.932;2022-09-13T06:53:24;9.90;;;5.80;;
7074;SDS011;3578;51.568;6.932;2022-09-13T06:56:04;10.30;;;5.47;;
7074;SDS011;3578;51.568;6.932;2022-09-13T06:58:34;11.70;;;5.83;;
7074;SDS011;3578;51.568;6.932;2022-09-13T07:01:06;7.13;;;5.30;;
7074;SDS011;3578;51.568;6.932;2022-09-13T07:03:36;8.30;;;5.27;;
7074;SDS011;3578;51.568;6.932;2022-09-13T07:06:05;11.77;;;5.30;;
7074;SDS011;3578;51.568;6.932;2022-09-13T07:08:38;8.20;;;5.83;;
7074;SDS011;3578;51.568;6.932;2022-09-13T07:11:09;9.67;;;6.00;;
7074;SDS011;3578;51.568;6.932;2022-09-13T07:13:38;8.10;;;6.00;;
7074;SDS011;3578;51.568;6.932;2022-09-13T07:16:07;7.77;;;5.37;;
7074;SDS011;3578;51.568;6.932;2022-09-13T07:18:35;7.70;;;5.60;;
7074;SDS011;3578;51.568;6.932;2022-09-13T07:21:03;12.43;;;6.33;;
7074;SDS011;3578;51.568;6.932;2022-09-13T07:23:33;9.83;;;5.07;;
7074;SDS011;3578;51.568;6.932;2022-09-13T07:26:02;7.77;;;6.10;;
7074;SDS011;3578;51.568;6.932;2022-09-13T07:28:33;9.57;;;5.90;;
7074;SDS011;3578;51.568;6.932;2022-09-13T07:31:04;13.50;;;5.97;;
7074;SDS011;3578;51.568;6.932;2022-09-13T07:33:34;10.53;;;6.27;;
7074;SDS011;3578;51.568;6.932;2022-09-13T07:36:01;8.43;;;5.50;;
7074;SDS011;3578;51.568;6.932;2022-09-13T07:38:31;9.67;;;5.90;;
7074;SDS011;3578;51.568;6.932;2022-09-13T07:40:59;7.17;;;5.67;;
7074;SDS011;3578;51.568;6.932;2022-09-13T07:43:27;11.40;;;6.73;;
7074;SDS011;3578;51.568;6.932;2022-09-13T07:45:59;7.27;;;5.27;;
7074;SDS011;3578;51.568;6.932;2022-09-13T07:48:28;12.10;;;6.67;;
7074;SDS011;3578;51.568;6.932;2022-09-13T07:50:57;10.53;;;6.90;;
7074;SDS011;3578;51.568;6.932;2022-09-13T07:53:26;13.00;;;6.20;;
7074;SDS011;3578;51.568;6.932;2022-09-13T07:55:58;7.40;;;5.93;;
7074;SDS011;3578;51.568;6.932;2022-09-13T07:58:27;8.43;;;6.27;;
7074;SDS011;3578;51.568;6.932;2022-09-13T08:00:55;7.13;;;6.37;;
7074;SDS011;3578;51.568;6.932;2022-09-13T08:03:30;9.97;;;5.80;;
7074;SDS011;3578;51.568;6.932;2022-09-13T08:05:57;10.53;;;6.40;;
7074;SDS011;3578;51.568;6.932;2022-09-13T08:08:24;10.93;;;6.73;;
7074;SDS011;3578;51.568;6.932;2022-09-13T08:10:51;11.23;;;7.73;;
7074;SDS011;3578;51.568;6.932;2022-09-13T08:13:18;8.30;;;6.40;;
7074;SDS011;3578;51.568;6.932;2022-09-13T08:15:45;10.30;;;6.33;;
7074;SDS011;3578;51.568;6.932;2022-09-13T08:18:13;9.77;;;6.47;;
7074;SDS011;3578;51.568;6.932;2022-09-13T08:20:40;11.50;;;7.30;;
7074;SDS011;3578;51.568;6.932;2022-09-13T08:23:08;11.30;;;7.00;;
7074;SDS011;3578;51.568;6.932;2022-09-13T08:25:37;7.97;;;6.73;;
7074;SDS011;3578;51.568;6.932;2022-09-13T08:28:05;7.90;;;6.47;;
7074;SDS011;3578;51.568;6.932;2022-09-13T08:30:34;14.70;;;6.80;;
7074;SDS011;3578;51.568;6.932;2022-09-13T08:33:03;9.47;;;6.53;;
7074;SDS011;3578;51.568;6.932;2022-09-13T08:35:31;11.33;;;7.50;;
7074;SDS011;3578;51.568;6.932;2022-09-13T08:37:59;16.57;;;7.70;;
7074;SDS011;3578;51.568;6.932;2022-09-13T08:40:27;12.10;;;7.40;;
7074;SDS011;3578;51.568;6.932;2022-09-13T08:42:59;12.97;;;9.23;;
7074;SDS011;3578;51.568;6.932;2022-09-13T08:45:32;15.23;;;8.03;;
7074;SDS011;3578;51.568;6.932;2022-09-13T08:48:00;16.93;;;8.00;;
7074;SDS011;3578;51.568;6.932;2022-09-13T08:50:34;10.57;;;6.43;;
7074;SDS011;3578;51.568;6.932;2022-09-13T08:53:06;13.73;;;7.63;;
7074;SDS011;3578;51.568;6.932;2022-09-13T08:55:49;12.17;;;6.77;;
7074;SDS011;3578;51.568;6.932;2022-09-13T08:58:34;13.73;;;7.27;;
7074;SDS011;3578;51.568;6.932;2022-09-13T09:01:17;12.83;;;8.47;;
7074;SDS011;3578;51.568;6.932;2022-09-13T09:03:57;12.57;;;8.90;;
7074;SDS011;3578;51.568;6.932;2022-09-13T09:06:33;12.17;;;8.90;;
7074;SDS011;3578;51.568;6.932;2022-09-13T09:09:03;10.73;;;8.57;;
7074;SDS011;3578;51.568;6.932;2022-09-13T09:11:36;15.13;;;7.93;;
7074;SDS011;3578;51.568;6.932;2022-09-13T09:14:13;10.83;;;8.33;;
7074;SDS011;3578;51.568;6.932;2022-09-13T09:16:46;12.53;;;7.77;;
7074;SDS011;3578;51.568;6.932;2022-09-13T09:19:19;11.27;;;8.57;;
7074;SDS011;3578;51.568;6.932;2022-09-13T09:21:52;10.37;;;8.20;;
7074;SDS011;3578;51.568;6.932;2022-09-13T09:24:20;10.07;;;9.07;;
7074;SDS011;3578;51.568;6.932;2022-09-13T09:26:49;13.20;;;8.43;;
7074;SDS011;3578;51.568;6.932;2022-09-13T09:29:19;13.70;;;9.60;;
7074;SDS011;3578;51.568;6.932;2022-09-13T09:34:47;9.60;;;8.00;;
7074;SDS011;3578;51.568;6.932;2022-09-13T09:37:30;11.37;;;8.70;;
7074;SDS011;3578;51.568;6.932;2022-09-13T09:40:00;9.40;;;7.70;;
7074;SDS011;3578;51.568;6.932;2022-09-13T09:42:33;9.20;;;7.97;;
7074;SDS011;3578;51.568;6.932;2022-09-13T09:45:16;8.60;;;7.37;;
7074;SDS011;3578;51.568;6.932;2022-09-13T09:47:51;10.40;;;8.47;;
7074;SDS011;3578;51.568;6.932;2022-09-13T09:50:21;9.93;;;8.17;;
7074;SDS011;3578;51.568;6.932;2022-09-13T09:52:56;8.17;;;7.37;;
7074;SDS011;3578;51.568;6.932;2022-09-13T09:55:30;9.17;;;7.30;;
7074;SDS011;3578;51.568;6.932;2022-09-13T09:58:02;9.80;;;7.87;;
7074;SDS011;3578;51.568;6.932;2022-09-13T10:00:33;8.17;;;7.07;;
7074;SDS011;3578;51.568;6.932;2022-09-13T10:03:03;7.70;;;6.87;;
7074;SDS011;3578;51.568;6.932;2022-09-13T10:05:34;9.23;;;8.13;;
7074;SDS011;3578;51.568;6.932;2022-09-13T10:08:03;17.00;;;7.80;;
7074;SDS011;3578;51.568;6.932;2022-09-13T10:10:34;9.40;;;8.23;;
7074;SDS011;3578;51.568;6.932;2022-09-13T10:13:06;9.17;;;8.27;;
7074;SDS011;3578;51.568;6.932;2022-09-13T10:15:50;7.93;;;7.10;;
7074;SDS011;3578;51.568;6.932;2022-09-13T10:18:19;15.13;;;7.93;;
7074;SDS011;3578;51.568;6.932;2022-09-13T10:20:58;10.70;;;9.17;;
7074;SDS011;3578;51.568;6.932;2022-09-13T10:23:29;10.27;;;9.33;;
7074;SDS011;3578;51.568;6.932;2022-09-13T10:25:59;12.33;;;10.27;;
7074;SDS011;3578;51.568;6.932;2022-09-13T10:28:31;13.80;;;8.67;;
7074;SDS011;3578;51.568;6.932;2022-09-13T10:31:05;8.90;;;7.90;;
7074;SDS011;3578;51.568;6.932;2022-09-13T10:33:36;13.30;;;10.33;;
7074;SDS011;3578;51.568;6.932;2022-09-13T10:36:06;14.60;;;12.23;;
7074;SDS011;3578;51.568;6.932;2022-09-13T10:38:41;13.77;;;11.03;;
7074;SDS011;3578;51.568;6.932;2022-09-13T10:41:19;10.80;;;9.73;;
7074;SDS011;3578;51.568;6.932;2022-09-13T10:43:49;14.57;;;10.03;;
7074;SDS011;3578;51.568;6.932;2022-09-13T10:46:24;11.20;;;8.83;;
7074;SDS011;3578;51.568;6.932;2022-09-13T10:48:52;12.23;;;10.73;;
7074;SDS011;3578;51.568;6.932;2022-09-13T10:51:31;15.70;;;11.77;;
7074;SDS011;3578;51.568;6.932;2022-09-13T10:54:07;11.73;;;10.52;;
7074;SDS011;3578;51.568;6.932;2022-09-13T10:56:42;11.00;;;9.77;;
7074;SDS011;3578;51.568;6.932;2022-09-13T10:59:14;9.23;;;8.20;;
7074;SDS011;3578;51.568;6.932;2022-09-13T11:04:55;9.87;;;8.47;;
7074;SDS011;3578;51.568;6.932;2022-09-13T11:07:42;13.73;;;10.67;;
7074;SDS011;3578;51.568;6.932;2022-09-13T11:10:31;12.70;;;10.80;;
7074;SDS011;3578;51.568;6.932;2022-09-13T11:13:06;17.50;;;10.10;;
7074;SDS011;3578;51.568;6.932;2022-09-13T11:15:49;11.43;;;9.13;;
7074;SDS011;3578;51.568;6.932;2022-09-13T11:18:26;15.20;;;9.73;;
7074;SDS011;3578;51.568;6.932;2022-09-13T11:21:28;8.67;;;7.77;;
7074;SDS011;3578;51.568;6.932;2022-09-13T11:24:13;10.50;;;9.50;;
7074;SDS011;3578;51.568;6.932;2022-09-13T11:27:05;11.87;;;8.53;;
7074;SDS011;3578;51.568;6.932;2022-09-13T11:29:45;13.50;;;9.23;;
7074;SDS011;3578;51.568;6.932;2022-09-13T11:32:31;9.17;;;8.20;;
7074;SDS011;3578;51.568;6.932;2022-09-13T11:35:17;10.33;;;7.00;;
7074;SDS011;3578;51.568;6.932;2022-09-13T11:38:11;11.17;;;8.00;;
7074;SDS011;3578;51.568;6.932;2022-09-13T11:40:57;9.87;;;6.70;;
7074;SDS011;3578;51.568;6.932;2022-09-13T11:43:37;14.87;;;9.83;;
7074;SDS011;3578;51.568;6.932;2022-09-13T11:46:29;8.60;;;7.70;;
7074;SDS011;3578;51.568;6.932;2022-09-13T11:52:20;11.87;;;8.60;;
7074;SDS011;3578;51.568;6.932;2022-09-13T11:55:05;11.83;;;8.87;;
7074;SDS011;3578;51.568;6.932;2022-09-13T11:57:43;17.17;;;10.03;;
7074;SDS011;3578;51.568;6.932;2022-09-13T12:00:19;8.13;;;7.33;;
7074;SDS011;3578;51.568;6.932;2022-09-13T12:02:52;14.07;;;9.47;;
7074;SDS011;3578;51.568;6.932;2022-09-13T12:05:29;10.40;;;8.87;;
7074;SDS011;3578;51.568;6.932;2022-09-13T12:08:01;12.07;;;10.27;;
7074;SDS011;3578;51.568;6.932;2022-09-13T12:10:36;16.67;;;10.03;;
7074;SDS011;3578;51.568;6.932;2022-09-13T12:13:11;11.33;;;9.27;;
7074;SDS011;3578;51.568;6.932;2022-09-13T12:15:46;9.87;;;8.50;;
7074;SDS011;3578;51.568;6.932;2022-09-13T12:18:19;10.53;;;8.53;;
7074;SDS011;3578;51.568;6.932;2022-09-13T12:20:51;9.30;;;8.33;;
7074;SDS011;3578;51.568;6.932;2022-09-13T12:23:23;15.30;;;11.07;;
7074;SDS011;3578;51.568;6.932;2022-09-13T12:25:57;11.13;;;8.47;;
7074;SDS011;3578;51.568;6.932;2022-09-13T12:28:28;9.87;;;8.73;;
7074;SDS011;3578;51.568;6.932;2022-09-13T12:31:06;9.83;;;8.03;;
7074;SDS011;3578;51.568;6.932;2022-09-13T12:33:43;12.23;;;6.90;;
7074;SDS011;3578;51.568;6.932;2022-09-13T12:39:36;12.30;;;9.30;;
7074;SDS011;3578;51.568;6.932;2022-09-13T12:42:31;13.00;;;9.77;;
7074;SDS011;3578;51.568;6.932;2022-09-13T12:45:21;10.83;;;8.93;;
7074;SDS011;3578;51.568;6.932;2022-09-13T12:48:13;10.00;;;9.00;;
7074;SDS011;3578;51.568;6.932;2022-09-13T12:51:12;11.33;;;9.50;;
7074;SDS011;3578;51.568;6.932;2022-09-13T12:53:56;9.97;;;8.97;;
7074;SDS011;3578;51.568;6.932;2022-09-13T12:56:52;11.47;;;9.80;;
7074;SDS011;3578;51.568;6.932;2022-09-13T12:59:32;8.80;;;7.47;;
7074;SDS011;3578;51.568;6.932;2022-09-13T13:02:22;10.70;;;8.40;;
7074;SDS011;3578;51.568;6.932;2022-09-13T13:05:01;10.27;;;8.70;;
7074;SDS011;3578;51.568;6.932;2022-09-13T13:07:31;11.93;;;9.17;;
7074;SDS011;3578;51.568;6.932;2022-09-13T13:10:02;10.47;;;8.03;;
7074;SDS011;3578;51.568;6.932;2022-09-13T13:12:31;9.50;;;7.30;;
7074;SDS011;3578;51.568;6.932;2022-09-13T13:15:01;9.20;;;7.50;;
7074;SDS011;3578;51.568;6.932;2022-09-13T13:17:42;8.53;;;7.73;;
7074;SDS011;3578;51.568;6.932;2022-09-13T13:23:28;7.23;;;5.63;;
7074;SDS011;3578;51.568;6.932;2022-09-13T13:26:03;8.90;;;6.70;;
7074;SDS011;3578;51.568;6.932;2022-09-13T13:31:40;7.40;;;6.10;;
7074;SDS011;3578;51.568;6.932;2022-09-13T13:34:27;8.73;;;5.40;;
7074;SDS011;3578;51.568;6.932;2022-09-13T13:37:21;7.67;;;5.13;;
7074;SDS011;3578;51.568;6.932;2022-09-13T13:48:53;9.83;;;7.10;;
7074;SDS011;3578;51.568;6.932;2022-09-13T13:51:22;8.20;;;7.07;;
7074;SDS011;3578;51.568;6.932;2022-09-13T13:54:03;13.03;;;6.57;;
7074;SDS011;3578;51.568;6.932;2022-09-13T13:57:21;14.13;;;6.67;;
7074;SDS011;3578;51.568;6.932;2022-09-13T13:59:49;9.10;;;7.63;;
7074;SDS011;3578;51.568;6.932;2022-09-13T14:02:21;10.80;;;7.20;;
7074;SDS011;3578;51.568;6.932;2022-09-13T14:07:52;9.10;;;7.33;;
7074;SDS011;3578;51.568;6.932;2022-09-13T14:10:56;10.77;;;7.87;;
7074;SDS011;3578;51.568;6.932;2022-09-13T14:16:29;6.20;;;5.70;;
7074;SDS011;3578;51.568;6.932;2022-09-13T14:19:18;6.27;;;4.73;;
7074;SDS011;3578;51.568;6.932;2022-09-13T14:22:04;5.03;;;4.53;;
7074;SDS011;3578;51.568;6.932;2022-09-13T14:24:38;8.83;;;7.20;;
7074;SDS011;3578;51.568;6.932;2022-09-13T14:27:12;6.93;;;6.33;;
7074;SDS011;3578;51.568;6.932;2022-09-13T14:29:43;7.60;;;6.23;;
7074;SDS011;3578;51.568;6.932;2022-09-13T14:32:14;6.93;;;6.23;;
7074;SDS011;3578;51.568;6.932;2022-09-13T14:34:49;7.23;;;5.70;;
7074;SDS011;3578;51.568;6.932;2022-09-13T14:37:27;9.03;;;6.77;;
7074;SDS011;3578;51.568;6.932;2022-09-13T14:39:57;5.50;;;4.80;;
7074;SDS011;3578;51.568;6.932;2022-09-13T14:42:37;13.33;;;6.10;;
7074;SDS011;3578;51.568;6.932;2022-09-13T14:45:10;9.67;;;5.60;;
7074;SDS011;3578;51.568;6.932;2022-09-13T14:47:41;6.70;;;5.60;;
7074;SDS011;3578;51.568;6.932;2022-09-13T14:50:17;8.27;;;7.40;;
7074;SDS011;3578;51.568;6.932;2022-09-13T14:52:50;9.30;;;5.43;;
7074;SDS011;3578;51.568;6.932;2022-09-13T14:55:22;5.70;;;4.73;;
7074;SDS011;3578;51.568;6.932;2022-09-13T14:57:56;6.00;;;4.50;;
7074;SDS011;3578;51.568;6.932;2022-09-13T15:00:28;9.50;;;5.97;;
7074;SDS011;3578;51.568;6.932;2022-09-13T15:03:00;8.23;;;5.00;;
7074;SDS011;3578;51.568;6.932;2022-09-13T15:05:36;6.90;;;6.00;;
7074;SDS011;3578;51.568;6.932;2022-09-13T15:11:05;7.73;;;7.00;;
7074;SDS011;3578;51.568;6.932;2022-09-13T15:13:40;5.77;;;5.23;;
7074;SDS011;3578;51.568;6.932;2022-09-13T15:16:22;5.37;;;4.87;;
7074;SDS011;3578;51.568;6.932;2022-09-13T15:21:42;8.53;;;5.90;;
7074;SDS011;3578;51.568;6.932;2022-09-13T15:24:15;9.93;;;8.13;;
7074;SDS011;3578;51.568;6.932;2022-09-13T15:26:59;7.03;;;6.40;;
7074;SDS011;3578;51.568;6.932;2022-09-13T15:29:29;10.13;;;7.20;;
7074;SDS011;3578;51.568;6.932;2022-09-13T15:31:58;6.40;;;5.57;;
7074;SDS011;3578;51.568;6.932;2022-09-13T15:34:26;7.63;;;6.77;;
7074;SDS011;3578;51.568;6.932;2022-09-13T15:37:09;9.23;;;6.57;;
7074;SDS011;3578;51.568;6.932;2022-09-13T15:39:41;9.37;;;7.30;;
7074;SDS011;3578;51.568;6.932;2022-09-13T15:42:13;7.67;;;6.97;;
7074;SDS011;3578;51.568;6.932;2022-09-13T15:44:42;8.97;;;7.23;;
7074;SDS011;3578;51.568;6.932;2022-09-13T15:47:10;8.80;;;5.93;;
7074;SDS011;3578;51.568;6.932;2022-09-13T15:49:46;9.53;;;6.30;;
7074;SDS011;3578;51.568;6.932;2022-09-13T15:52:15;5.57;;;5.07;;
7074;SDS011;3578;51.568;6.932;2022-09-13T15:54:45;7.33;;;6.17;;
7074;SDS011;3578;51.568;6.932;2022-09-13T15:57:15;8.30;;;7.60;;
7074;SDS011;3578;51.568;6.932;2022-09-13T15:59:47;8.40;;;6.97;;
7074;SDS011;3578;51.568;6.932;2022-09-13T16:02:16;7.73;;;7.03;;
7074;SDS011;3578;51.568;6.932;2022-09-13T16:04:48;11.00;;;7.00;;
7074;SDS011;3578;51.568;6.932;2022-09-13T16:07:15;11.73;;;6.43;;
7074;SDS011;3578;51.568;6.932;2022-09-13T16:09:43;6.97;;;6.37;;
7074;SDS011;3578;51.568;6.932;2022-09-13T16:12:10;6.20;;;5.67;;
7074;SDS011;3578;51.568;6.932;2022-09-13T16:14:37;5.20;;;4.70;;
7074;SDS011;3578;51.568;6.932;2022-09-13T16:17:09;5.97;;;5.37;;
7074;SDS011;3578;51.568;6.932;2022-09-13T16:19:39;8.67;;;5.60;;
7074;SDS011;3578;51.568;6.932;2022-09-13T16:22:06;7.67;;;5.40;;
7074;SDS011;3578;51.568;6.932;2022-09-13T16:24:33;8.57;;;5.70;;
7074;SDS011;3578;51.568;6.932;2022-09-13T16:27:02;8.23;;;6.40;;
7074;SDS011;3578;51.568;6.932;2022-09-13T16:29:29;7.80;;;7.10;;
7074;SDS011;3578;51.568;6.932;2022-09-13T16:31:57;7.43;;;6.00;;
7074;SDS011;3578;51.568;6.932;2022-09-13T16:34:27;7.47;;;6.57;;
7074;SDS011;3578;51.568;6.932;2022-09-13T16:36:53;7.77;;;6.70;;